createdAt,value
2018-11-03T00:02:02.726Z,99158.80
2018-11-03T00:04:33.617Z,99155.30
2018-11-03T00:07:05.871Z,99160.40
2018-11-03T00:09:37.196Z,99160.50
2018-11-03T00:12:08.248Z,99150.99
2018-11-03T00:14:40.570Z,99148.78
2018-11-03T00:17:11.752Z,99149.69
2018-11-03T00:19:42.690Z,99144.09
2018-11-03T00:22:13.935Z,99146.07
2018-11-03T00:24:45.856Z,99141.61
2018-11-03T00:27:17.039Z,99141.75
2018-11-03T00:29:48.032Z,99146.89
2018-11-03T00:32:18.878Z,99146.02
2018-11-03T00:34:49.743Z,99149.09
2018-11-03T00:37:20.719Z,99149.72
2018-11-03T00:39:51.649Z,99144.91
2018-11-03T00:42:22.492Z,99149.78
2018-11-03T00:44:53.268Z,99145.59
2018-11-03T00:47:24.148Z,99142.05
2018-11-03T00:49:54.874Z,99132.80
2018-11-03T00:52:25.812Z,99126.44
2018-11-03T00:54:56.731Z,99127.30
2018-11-03T00:57:27.806Z,99114.80
2018-11-03T00:59:58.636Z,99105.32
2018-11-03T01:02:29.440Z,99098.56
2018-11-03T01:04:59.988Z,99107.81
2018-11-03T01:07:30.807Z,99107.88
2018-11-03T01:10:01.777Z,99106.72
2018-11-03T01:12:32.584Z,99099.52
2018-11-03T01:15:03.160Z,99103.86
2018-11-03T01:17:34.059Z,99098.44
2018-11-03T01:20:06.375Z,99100.63
2018-11-03T01:22:37.147Z,99097.73
2018-11-03T01:25:08.763Z,99098.78
2018-11-03T01:27:39.485Z,99096.39
2018-11-03T01:30:14.858Z,99103.93
2018-11-03T01:32:46.612Z,99104.33
2018-11-03T01:35:17.527Z,99106.46
2018-11-03T01:37:48.624Z,99115.68
2018-11-03T01:40:19.804Z,99126.52
2018-11-03T01:42:51.003Z,99127.81
2018-11-03T01:45:23.084Z,99129.98
2018-11-03T01:47:54.832Z,99130.34
2018-11-03T01:50:25.905Z,99133.34
2018-11-03T01:52:58.408Z,99130.75
2018-11-03T01:55:29.075Z,99138.48
2018-11-03T01:58:00.175Z,99146.88
2018-11-03T02:00:30.667Z,99147.32
2018-11-03T02:03:01.688Z,99143.35
2018-11-03T02:05:32.292Z,99143.75
2018-11-03T02:08:03.258Z,99147.65
2018-11-03T02:10:33.624Z,99151.95
2018-11-03T02:13:04.336Z,99143.69
2018-11-03T02:15:35.265Z,99140.61
2018-11-03T02:18:06.084Z,99140.61
2018-11-03T02:20:37.047Z,99139.84
2018-11-03T02:23:07.951Z,99139.31
2018-11-03T02:25:38.866Z,99131.84
2018-11-03T02:28:09.520Z,99136.91
2018-11-03T02:30:40.277Z,99131.64
2018-11-03T02:33:11.091Z,99137.23
2018-11-03T02:35:42.035Z,99136.14
2018-11-03T02:38:12.993Z,99144.52
2018-11-03T02:40:44.016Z,99136.58
2018-11-03T02:43:14.972Z,99133.61
2018-11-03T02:45:45.371Z,99132.31
2018-11-03T02:48:16.489Z,99135.28
2018-11-03T02:50:47.144Z,99137.38
2018-11-03T02:53:17.995Z,99134.31
2018-11-03T02:55:49.377Z,99127.67
2018-11-03T02:58:20.177Z,99119.40
2018-11-03T03:00:51.020Z,99123.16
2018-11-03T03:03:21.947Z,99121.09
2018-11-03T03:05:52.838Z,99121.16
2018-11-03T03:08:23.497Z,99117.33
2018-11-03T03:10:54.539Z,99124.23
2018-11-03T03:13:25.158Z,99130.13
2018-11-03T03:15:56.131Z,99131.77
2018-11-03T03:18:26.939Z,99124.33
2018-11-03T03:20:59.591Z,99117.83
2018-11-03T03:23:30.381Z,99122.52
2018-11-03T03:26:01.209Z,99126.42
2018-11-03T03:28:32.027Z,99132.86
2018-11-03T03:31:02.821Z,99136.77
2018-11-03T03:33:33.802Z,99131.63
2018-11-03T03:36:04.899Z,99133.36
2018-11-03T03:38:35.807Z,99135.45
2018-11-03T03:41:08.214Z,99135.36
2018-11-03T03:43:39.328Z,99137.66
2018-11-03T03:46:10.203Z,99144.63
2018-11-03T03:48:42.201Z,99151.50
2018-11-03T03:51:13.366Z,99158.47
2018-11-03T03:53:45.752Z,99150.97
2018-11-03T03:56:16.489Z,99153.83
2018-11-03T03:58:47.362Z,99153.36
2018-11-03T04:01:18.244Z,99150.39
2018-11-03T04:03:49.989Z,99143.89
2018-11-03T04:06:21.026Z,99151.23
2018-11-03T04:08:52.960Z,99152.80
2018-11-03T04:11:23.587Z,99156.09
2018-11-03T04:13:54.496Z,99154.30
2018-11-03T04:16:25.292Z,99151.23
2018-11-03T04:18:56.146Z,99149.16
2018-11-03T04:21:28.870Z,99146.30
2018-11-03T04:24:00.019Z,99149.66
2018-11-03T04:26:31.317Z,99150.69
2018-11-03T04:29:02.354Z,99155.25
2018-11-03T04:31:33.178Z,99146.44
2018-11-03T04:34:04.800Z,99152.58
2018-11-03T04:36:35.483Z,99149.52
2018-11-03T04:39:07.516Z,99153.74
2018-11-03T04:41:38.135Z,99158.34
2018-11-03T04:44:09.801Z,99151.16
2018-11-03T04:46:41.076Z,99152.73
2018-11-03T04:49:11.974Z,99151.42
2018-11-03T04:51:42.844Z,99150.25
2018-11-03T04:54:13.679Z,99148.77
2018-11-03T04:56:44.495Z,99149.77
2018-11-03T04:59:15.635Z,99153.43
2018-11-03T05:01:46.372Z,99148.95
2018-11-03T05:04:17.160Z,99151.78
2018-11-03T05:06:47.743Z,99157.58
2018-11-03T05:09:18.705Z,99160.31
2018-11-03T05:11:49.504Z,99156.28
2018-11-03T05:14:20.165Z,99155.41
2018-11-03T05:16:51.261Z,99151.84
2018-11-03T05:19:22.357Z,99151.30
2018-11-03T05:21:53.128Z,99150.72
2018-11-03T05:24:24.082Z,99141.14
2018-11-03T05:26:54.948Z,99142.52
2018-11-03T05:29:26.193Z,99145.95
2018-11-03T05:31:57.079Z,99144.14
2018-11-03T05:34:28.101Z,99144.98
2018-11-03T05:36:59.202Z,99146.61
2018-11-03T05:39:30.185Z,99153.55
2018-11-03T05:42:01.096Z,99155.17
2018-11-03T05:44:31.817Z,99155.25
2018-11-03T05:47:02.548Z,99157.78
2018-11-03T05:49:35.845Z,99153.80
2018-11-03T05:52:06.682Z,99156.80
2018-11-03T05:54:38.120Z,99159.70
2018-11-03T05:57:09.824Z,99166.21
2018-11-03T05:59:41.011Z,99164.84
2018-11-03T06:02:11.831Z,99161.80
2018-11-03T06:04:49.247Z,99159.63
2018-11-03T06:07:20.096Z,99154.75
2018-11-03T06:09:50.869Z,99159.09
2018-11-03T06:12:22.042Z,99159.81
2018-11-03T06:14:52.806Z,99158.45
2018-11-03T06:17:23.584Z,99160.98
2018-11-03T06:19:54.417Z,99157.83
2018-11-03T06:22:25.148Z,99156.93
2018-11-03T06:24:55.899Z,99159.67
2018-11-03T06:27:26.695Z,99157.44
2018-11-03T06:29:57.323Z,99151.33
2018-11-03T06:32:28.141Z,99152.16
2018-11-03T06:34:58.954Z,99146.81
2018-11-03T06:37:29.772Z,99147.13
2018-11-03T06:40:00.591Z,99143.38
2018-11-03T06:42:31.341Z,99144.67
2018-11-03T06:45:01.857Z,99147.20
2018-11-03T06:47:32.613Z,99153.64
2018-11-03T06:50:03.389Z,99151.36
2018-11-03T06:52:34.243Z,99158.78
2018-11-03T06:55:06.196Z,99161.17
2018-11-03T06:57:37.291Z,99157.66
2018-11-03T07:00:10.719Z,99160.88
2018-11-03T07:02:41.568Z,99160.73
2018-11-03T07:05:13.815Z,99163.12
2018-11-03T07:07:45.509Z,99164.82
2018-11-03T07:10:16.894Z,99164.67
2018-11-03T07:12:48.263Z,99162.36
2018-11-03T07:15:21.153Z,99162.50
2018-11-03T07:17:51.971Z,99163.66
2018-11-03T07:20:22.957Z,99166.88
2018-11-03T07:22:53.752Z,99164.84
2018-11-03T07:25:24.788Z,99164.11
2018-11-03T07:27:55.520Z,99163.81
2018-11-03T07:30:27.316Z,99163.83
2018-11-03T07:32:58.068Z,99159.31
2018-11-03T07:35:28.969Z,99173.81
2018-11-03T07:37:59.481Z,99184.66
2018-11-03T07:40:30.360Z,99179.55
2018-11-03T07:43:01.251Z,99178.70
2018-11-03T07:45:31.975Z,99175.64
2018-11-03T07:48:02.900Z,99176.93
2018-11-03T07:50:33.732Z,99182.31
2018-11-03T07:53:04.711Z,99184.22
2018-11-03T07:55:35.429Z,99186.16
2018-11-03T07:58:06.794Z,99180.59
2018-11-03T08:00:38.188Z,99182.46
2018-11-03T08:03:08.949Z,99170.17
2018-11-03T08:05:41.189Z,99173.38
2018-11-03T08:08:11.864Z,99174.45
2018-11-03T08:10:42.505Z,99175.16
2018-11-03T08:13:13.424Z,99174.92
2018-11-03T08:15:44.235Z,99173.30
2018-11-03T08:18:15.089Z,99172.59
2018-11-03T08:20:46.224Z,99174.48
2018-11-03T08:23:17.004Z,99179.55
2018-11-03T08:25:47.791Z,99186.22
2018-11-03T08:28:18.640Z,99183.45
2018-11-03T08:30:49.587Z,99195.87
2018-11-03T08:33:20.444Z,99196.18
2018-11-03T08:35:51.974Z,99192.10
2018-11-03T08:38:23.311Z,99190.09
2018-11-03T08:40:54.652Z,99179.06
2018-11-03T08:43:25.620Z,99181.34
2018-11-03T08:45:57.819Z,99178.25
2018-11-03T08:48:28.779Z,99169.06
2018-11-03T08:51:01.427Z,99164.14
2018-11-03T08:53:32.289Z,99164.12
2018-11-03T08:56:03.750Z,99165.95
2018-11-03T08:58:35.421Z,99157.31
2018-11-03T09:01:06.703Z,99156.36
2018-11-03T09:03:37.591Z,99145.93
2018-11-03T09:06:10.105Z,99141.66
2018-11-03T09:08:41.137Z,99140.02
2018-11-03T09:11:12.075Z,99134.22
2018-11-03T09:13:42.976Z,99150.38
2018-11-03T09:16:13.778Z,99144.59
2018-11-03T09:18:44.767Z,99144.72
2018-11-03T09:21:17.032Z,99149.20
2018-11-03T09:23:48.114Z,99144.89
2018-11-03T09:26:18.947Z,99147.90
2018-11-03T09:28:49.780Z,99145.90
2018-11-03T09:31:20.721Z,99138.41
2018-11-03T09:33:51.667Z,99141.88
2018-11-03T09:36:22.472Z,99142.33
2018-11-03T09:38:53.413Z,99145.55
2018-11-03T09:41:26.301Z,99150.52
2018-11-03T09:43:57.114Z,99162.10
2018-11-03T09:46:28.368Z,99165.64
2018-11-03T09:48:59.428Z,99155.66
2018-11-03T09:51:30.249Z,99154.48
2018-11-03T09:54:01.177Z,99144.12
2018-11-03T09:56:32.411Z,99139.55
2018-11-03T09:59:04.053Z,99133.95
2018-11-03T10:01:36.407Z,99136.75
2018-11-03T10:04:07.946Z,99132.73
2018-11-03T10:06:39.134Z,99134.31
2018-11-03T10:09:10.145Z,99137.88
2018-11-03T10:11:42.515Z,99131.70
2018-11-03T10:14:15.049Z,99132.27
2018-11-03T10:16:46.503Z,99127.55
2018-11-03T10:19:17.295Z,99137.92
2018-11-03T10:21:49.324Z,99129.45
2018-11-03T10:24:21.033Z,99127.30
2018-11-03T10:26:53.061Z,99129.38
2018-11-03T10:29:23.980Z,99127.51
2018-11-03T10:31:54.907Z,99124.44
2018-11-03T10:34:25.868Z,99128.66
2018-11-03T10:36:56.767Z,99121.55
2018-11-03T10:39:27.603Z,99120.42
2018-11-03T10:41:58.448Z,99118.64
2018-11-03T10:44:32.332Z,99118.55
2018-11-03T10:47:02.960Z,99117.98
2018-11-03T10:49:33.587Z,99115.74
2018-11-03T10:52:04.188Z,99111.95
2018-11-03T10:54:35.013Z,99105.66
2018-11-03T10:57:06.811Z,99095.87
2018-11-03T10:59:37.700Z,99096.61
2018-11-03T11:03:17.288Z,99087.72
2018-11-03T11:05:52.963Z,99076.89
2018-11-03T11:08:30.199Z,99079.70
2018-11-03T11:11:06.389Z,99079.23
2018-11-03T11:13:38.508Z,99071.53
2018-11-03T11:16:09.487Z,99070.38
2018-11-03T11:18:40.344Z,99074.11
2018-11-03T11:21:11.317Z,99071.97
2018-11-03T11:23:42.117Z,99073.34
2018-11-03T11:26:12.967Z,99069.20
2018-11-03T11:28:46.765Z,99069.45
2018-11-03T11:31:17.728Z,99069.83
2018-11-03T11:33:48.982Z,99055.41
2018-11-03T11:36:20.068Z,99058.47
2018-11-03T11:38:51.032Z,99053.51
2018-11-03T11:41:23.778Z,99051.56
2018-11-03T11:43:56.865Z,99046.08
2018-11-03T11:46:30.427Z,99056.44
2018-11-03T11:49:01.461Z,99046.69
2018-11-03T11:51:34.603Z,99047.41
2018-11-03T11:54:06.045Z,99042.55
2018-11-03T11:56:36.704Z,99041.41
2018-11-03T11:59:07.707Z,99034.27
2018-11-03T12:01:38.520Z,99025.52
2018-11-03T12:04:09.857Z,99019.34
2018-11-03T12:06:40.671Z,99022.45
2018-11-03T12:09:11.584Z,99024.29
2018-11-03T12:11:42.480Z,99011.80
2018-11-03T12:14:14.099Z,99011.30
2018-11-03T12:16:44.681Z,99014.40
2018-11-03T12:19:15.972Z,99013.02
2018-11-03T12:21:47.044Z,99008.47
2018-11-03T12:24:18.372Z,98999.94
2018-11-03T12:26:49.350Z,99003.26
2018-11-03T12:29:20.112Z,98993.63
2018-11-03T12:31:51.069Z,98989.17
2018-11-03T12:34:21.912Z,98981.41
2018-11-03T12:36:52.720Z,98976.68
2018-11-03T12:39:23.652Z,98967.63
2018-11-03T12:41:54.744Z,98966.28
2018-11-03T12:44:25.611Z,98964.59
2018-11-03T12:46:56.412Z,98958.09
2018-11-03T12:49:27.494Z,98954.38
2018-11-03T12:51:58.826Z,98948.31
2018-11-03T12:54:30.029Z,98947.41
2018-11-03T12:57:00.929Z,98940.45
2018-11-03T12:59:31.589Z,98937.43
2018-11-03T13:02:04.693Z,98931.47
2018-11-03T13:04:36.130Z,98930.59
2018-11-03T13:07:07.208Z,98925.34
2018-11-03T13:09:38.284Z,98924.78
2018-11-03T13:12:11.430Z,98916.80
2018-11-03T13:14:46.185Z,98909.17
2018-11-03T13:17:17.404Z,98918.45
2018-11-03T13:19:48.309Z,98919.17
2018-11-03T13:22:20.285Z,98912.17
2018-11-03T13:24:51.012Z,98910.59
2018-11-03T13:27:21.940Z,98907.86
2018-11-03T13:29:52.569Z,98909.87
2018-11-03T13:32:23.228Z,98904.41
2018-11-03T13:34:54.194Z,98901.00
2018-11-03T13:37:25.084Z,98900.88
2018-11-03T13:39:55.655Z,98896.70
2018-11-03T13:42:26.332Z,98883.93
2018-11-03T13:44:57.112Z,98879.70
2018-11-03T13:47:31.264Z,98880.52
2018-11-03T13:50:02.616Z,98879.80
2018-11-03T13:52:33.321Z,98884.87
2018-11-03T13:55:04.093Z,98882.31
2018-11-03T13:57:34.762Z,98889.00
2018-11-03T14:00:06.876Z,98887.08
2018-11-03T14:02:37.533Z,98875.17
2018-11-03T14:05:09.972Z,98884.35
2018-11-03T14:07:42.004Z,98880.21
2018-11-03T14:10:15.678Z,98883.45
2018-11-03T14:12:47.977Z,98885.56
2018-11-03T14:15:20.481Z,98887.14
2018-11-03T14:17:52.307Z,98888.59
2018-11-03T14:20:23.340Z,98882.70
2018-11-03T14:23:09.745Z,98883.80
2018-11-03T14:25:40.503Z,98881.31
2018-11-03T14:28:13.648Z,98881.90
2018-11-03T14:30:44.292Z,98876.69
2018-11-03T14:33:15.020Z,98879.48
2018-11-03T14:35:46.048Z,98882.91
2018-11-03T14:38:16.784Z,98873.14
2018-11-03T14:40:48.047Z,98880.83
2018-11-03T14:43:18.680Z,98885.23
2018-11-03T14:45:49.389Z,98878.94
2018-11-03T14:48:22.370Z,98872.69
2018-11-03T14:50:54.004Z,98872.48
2018-11-03T14:53:25.312Z,98867.13
2018-11-03T14:55:56.734Z,98865.09
2018-11-03T14:58:29.409Z,98865.82
2018-11-03T15:01:00.378Z,98854.74
2018-11-03T15:03:31.295Z,98852.13
2018-11-03T15:06:02.819Z,98848.20
2018-11-03T15:08:36.272Z,98848.67
2018-11-03T15:11:07.317Z,98849.16
2018-11-03T15:13:38.359Z,98843.84
2018-11-03T15:16:09.380Z,98846.98
2018-11-03T15:18:42.411Z,98849.16
2018-11-03T15:21:13.152Z,98847.98
2018-11-03T15:23:43.744Z,98839.20
2018-11-03T15:26:14.450Z,98839.12
2018-11-03T15:28:45.081Z,98846.89
2018-11-03T15:31:15.775Z,98832.58
2018-11-03T15:33:46.371Z,98849.88
2018-11-03T15:36:17.136Z,98842.03
2018-11-03T15:38:47.567Z,98846.78
2018-11-03T15:41:18.243Z,98840.52
2018-11-03T15:43:49.136Z,98838.48
2018-11-03T15:46:19.901Z,98845.75
2018-11-03T15:48:50.599Z,98853.02
2018-11-03T15:51:23.159Z,98851.34
2018-11-03T15:53:53.800Z,98844.75
2018-11-03T15:56:24.442Z,98841.09
2018-11-03T15:58:55.173Z,98845.33
2018-11-03T16:01:26.119Z,98848.16
2018-11-03T16:03:56.896Z,98850.97
2018-11-03T16:06:28.196Z,98843.74
2018-11-03T16:08:59.086Z,98842.21
2018-11-03T16:11:30.080Z,98840.42
2018-11-03T16:14:00.697Z,98838.73
2018-11-03T16:16:31.457Z,98837.42
2018-11-03T16:19:02.098Z,98841.00
2018-11-03T16:21:32.787Z,98834.80
2018-11-03T16:24:03.500Z,98840.80
2018-11-03T16:26:34.209Z,98843.83
2018-11-03T16:29:04.944Z,98835.56
2018-11-03T16:31:35.605Z,98844.97
2018-11-03T16:34:06.700Z,98837.27
2018-11-03T16:36:37.351Z,98837.27
2018-11-03T16:39:10.754Z,98840.44
2018-11-03T16:41:43.592Z,98845.41
2018-11-03T16:44:15.506Z,98840.52
2018-11-03T16:46:46.961Z,98837.41
2018-11-03T16:49:22.606Z,98840.77
2018-11-03T16:51:55.723Z,98844.96
2018-11-03T16:54:30.037Z,98849.00
2018-11-03T16:57:00.872Z,98843.03
2018-11-03T16:59:31.493Z,98845.66
2018-11-03T17:02:02.233Z,98839.45
2018-11-03T17:04:32.983Z,98848.22
2018-11-03T17:07:04.560Z,98848.72
2018-11-03T17:09:35.359Z,98849.20
2018-11-03T17:12:07.687Z,98858.25
2018-11-03T17:14:39.897Z,98856.08
2018-11-03T17:17:10.751Z,98847.78
2018-11-03T17:19:41.580Z,98843.95
2018-11-03T17:22:12.317Z,98855.88
2018-11-03T17:24:43.095Z,98854.95
2018-11-03T17:27:15.711Z,98849.72
2018-11-03T17:29:46.443Z,98850.00
2018-11-03T17:32:21.616Z,98848.48
2018-11-03T17:34:53.525Z,98844.28
2018-11-03T17:37:26.964Z,98842.87
2018-11-03T17:39:59.888Z,98844.28
2018-11-03T17:42:30.632Z,98837.36
2018-11-03T17:45:01.632Z,98833.33
2018-11-03T17:47:33.525Z,98823.34
2018-11-03T17:50:04.461Z,98830.37
2018-11-03T17:52:35.533Z,98826.16
2018-11-03T17:55:07.049Z,98828.20
2018-11-03T17:57:37.750Z,98828.00
2018-11-03T18:00:14.320Z,98823.97
2018-11-03T18:02:46.175Z,98829.11
2018-11-03T18:05:17.294Z,98821.25
2018-11-03T18:07:48.026Z,98826.39
2018-11-03T18:10:18.968Z,98822.46
2018-11-03T18:12:50.901Z,98827.70
2018-11-03T18:15:22.636Z,98827.80
2018-11-03T18:17:53.439Z,98825.08
2018-11-03T18:20:24.165Z,98827.34
2018-11-03T18:22:55.765Z,98823.87
2018-11-03T18:25:26.557Z,98824.73
2018-11-03T18:27:57.615Z,98819.50
2018-11-03T18:30:31.039Z,98813.30
2018-11-03T18:33:02.412Z,98804.07
2018-11-03T18:35:33.288Z,98799.94
2018-11-03T18:38:04.783Z,98795.08
2018-11-03T18:40:36.164Z,98799.26
2018-11-03T18:43:07.728Z,98802.21
2018-11-03T18:45:38.581Z,98793.31
2018-11-03T18:48:09.411Z,98793.84
2018-11-03T18:50:40.812Z,98791.70
2018-11-03T18:53:13.933Z,98793.03
2018-11-03T18:55:44.548Z,98794.97
2018-11-03T18:58:16.525Z,98796.08
2018-11-03T19:00:47.086Z,98795.84
2018-11-03T19:03:17.903Z,98797.25
2018-11-03T19:05:50.326Z,98802.78
2018-11-03T19:08:21.360Z,98799.34
2018-11-03T19:10:52.345Z,98798.58
2018-11-03T19:13:23.274Z,98792.02
2018-11-03T19:15:54.042Z,98794.34
2018-11-03T19:18:24.766Z,98793.02
2018-11-03T19:20:55.541Z,98793.11
2018-11-03T19:23:26.395Z,98792.11
2018-11-03T19:25:57.289Z,98783.24
2018-11-03T19:28:30.930Z,98783.69
2018-11-03T19:31:01.704Z,98789.00
2018-11-03T19:33:32.779Z,98786.20
2018-11-03T19:36:03.896Z,98784.05
2018-11-03T19:38:34.716Z,98774.13
2018-11-03T19:41:05.381Z,98772.92
2018-11-03T19:43:36.313Z,98765.36
2018-11-03T19:46:07.192Z,98764.80
2018-11-03T19:48:38.152Z,98757.67
2018-11-03T19:51:10.027Z,98755.41
2018-11-03T19:53:42.091Z,98758.78
2018-11-03T19:56:13.081Z,98754.91
2018-11-03T19:58:47.243Z,98753.30
2018-11-03T20:01:18.211Z,98749.17
2018-11-03T20:03:49.446Z,98742.70
2018-11-03T20:06:21.863Z,98749.97
2018-11-03T20:08:54.187Z,98741.09
2018-11-03T20:11:26.874Z,98745.40
2018-11-03T20:13:57.585Z,98746.13
2018-11-03T20:16:28.525Z,98741.41
2018-11-03T20:18:59.332Z,98743.41
2018-11-03T20:21:29.960Z,98745.45
2018-11-03T20:24:00.708Z,98749.85
2018-11-03T20:26:32.004Z,98742.82
2018-11-03T20:29:02.884Z,98733.97
2018-11-03T20:31:33.972Z,98730.42
2018-11-03T20:34:05.111Z,98733.97
2018-11-03T20:36:35.926Z,98729.14
2018-11-03T20:39:09.278Z,98725.97
2018-11-03T20:41:40.275Z,98724.77
2018-11-03T20:44:11.123Z,98723.28
2018-11-03T20:46:42.004Z,98720.97
2018-11-03T20:49:12.636Z,98722.09
2018-11-03T20:51:43.379Z,98716.97
2018-11-03T20:54:14.052Z,98713.14
2018-11-03T20:56:44.673Z,98715.86
2018-11-03T20:59:15.350Z,98709.86
2018-11-03T21:01:45.941Z,98713.87
2018-11-03T21:04:16.663Z,98711.36
2018-11-03T21:06:47.364Z,98711.09
2018-11-03T21:09:18.257Z,98717.91
2018-11-03T21:11:49.079Z,98713.98
2018-11-03T21:14:19.840Z,98708.84
2018-11-03T21:16:50.757Z,98714.63
2018-11-03T21:19:21.656Z,98713.60
2018-11-03T21:21:52.360Z,98711.09
2018-11-03T21:24:23.168Z,98708.09
2018-11-03T21:26:54.257Z,98691.56
2018-11-03T21:29:31.253Z,98690.98
2018-11-03T21:32:02.219Z,98682.13
2018-11-03T21:34:33.554Z,98681.41
2018-11-03T21:37:05.701Z,98676.17
2018-11-03T21:39:36.601Z,98667.50
2018-11-03T21:42:07.340Z,98660.09
2018-11-03T21:44:40.532Z,98658.17
2018-11-03T21:47:11.407Z,98657.78
2018-11-03T21:49:44.088Z,98654.83
2018-11-03T21:52:14.807Z,98659.20
2018-11-03T21:54:45.397Z,98653.62
2018-11-03T21:57:15.812Z,98653.52
2018-11-03T21:59:46.780Z,98644.91
2018-11-03T22:02:17.768Z,98642.78
2018-11-03T22:04:48.576Z,98636.34
2018-11-03T22:07:19.300Z,98635.86
2018-11-03T22:09:49.992Z,98641.95
2018-11-03T22:12:20.690Z,98638.86
2018-11-03T22:14:51.370Z,98636.86
2018-11-03T22:17:22.342Z,98643.30
2018-11-03T22:19:52.940Z,98644.16
2018-11-03T22:22:24.368Z,98643.30
2018-11-03T22:24:54.683Z,98641.89
2018-11-03T22:27:25.963Z,98647.02
2018-11-03T22:29:56.629Z,98641.69
2018-11-03T22:32:27.348Z,98635.11
2018-11-03T22:34:58.405Z,98631.63
2018-11-03T22:37:29.095Z,98629.02
2018-11-03T22:39:59.838Z,98626.78
2018-11-03T22:42:30.707Z,98633.62
2018-11-03T22:45:01.626Z,98627.02
2018-11-03T22:47:32.610Z,98628.90
2018-11-03T22:50:03.607Z,98632.52
2018-11-03T22:52:34.248Z,98620.38
2018-11-03T22:55:05.800Z,98620.23
2018-11-03T22:57:36.360Z,98618.16
2018-11-03T23:00:15.063Z,98614.14
2018-11-03T23:02:46.408Z,98612.10
2018-11-03T23:05:18.774Z,98619.22
2018-11-03T23:07:49.743Z,98615.75
2018-11-03T23:10:20.709Z,98608.97
2018-11-03T23:12:52.654Z,98608.48
2018-11-03T23:15:24.019Z,98601.84
2018-11-03T23:17:55.022Z,98612.78
2018-11-03T23:20:26.028Z,98606.70
2018-11-03T23:22:56.752Z,98602.33
2018-11-03T23:25:28.067Z,98595.31
2018-11-03T23:27:59.607Z,98591.01
2018-11-03T23:30:30.469Z,98586.53
2018-11-03T23:33:01.399Z,98582.52
2018-11-03T23:35:32.159Z,98570.09
2018-11-03T23:38:02.815Z,98570.85
2018-11-03T23:40:33.661Z,98568.34
2018-11-03T23:43:04.673Z,98562.05
2018-11-03T23:45:35.388Z,98554.20
2018-11-03T23:48:07.080Z,98557.77
2018-11-03T23:50:37.876Z,98555.27
2018-11-03T23:53:08.712Z,98557.77
2018-11-03T23:55:39.512Z,98561.70
2018-11-03T23:58:10.267Z,98550.03
